sensor_id;sensor_type;location;lat;lon;timestamp;temperature;humidity
24226;DHT22;51462;51.422;5.514;2023-12-20T00:01:47;7.40;99.90
24226;DHT22;51462;51.422;5.514;2023-12-20T00:04:12;7.20;99.90
24226;DHT22;51462;51.422;5.514;2023-12-20T00:06:38;7.20;99.90
24226;DHT22;51462;51.422;5.514;2023-12-20T00:09:03;7.20;99.90
24226;DHT22;51462;51.422;5.514;2023-12-20T00:11:29;7.10;99.90
24226;DHT22;51462;51.422;5.514;2023-12-20T00:13:54;7.00;99.90
24226;DHT22;51462;51.422;5.514;2023-12-20T00:16:20;7.20;99.90
24226;DHT22;51462;51.422;5.514;2023-12-20T00:18:45;7.20;99.90
24226;DHT22;51462;51.422;5.514;2023-12-20T00:21:11;7.00;99.90
24226;DHT22;51462;51.422;5.514;2023-12-20T00:23:37;6.90;99.90
24226;DHT22;51462;51.422;5.514;2023-12-20T00:26:02;6.80;99.90
24226;DHT22;51462;51.422;5.514;2023-12-20T00:28:28;6.90;99.90
24226;DHT22;51462;51.422;5.514;2023-12-20T00:30:53;6.80;99.90
24226;DHT22;51462;51.422;5.514;2023-12-20T00:33:19;6.80;99.90
24226;DHT22;51462;51.422;5.514;2023-12-20T00:35:44;6.80;99.90
24226;DHT22;51462;51.422;5.514;2023-12-20T00:38:10;6.70;99.90
24226;DHT22;51462;51.422;5.514;2023-12-20T00:40:36;6.60;99.90
24226;DHT22;51462;51.422;5.514;2023-12-20T00:43:02;6.70;99.90
24226;DHT22;51462;51.422;5.514;2023-12-20T00:45:28;6.60;99.90
24226;DHT22;51462;51.422;5.514;2023-12-20T00:47:54;6.60;99.90
24226;DHT22;51462;51.422;5.514;2023-12-20T00:50:19;6.60;99.90
24226;DHT22;51462;51.422;5.514;2023-12-20T00:52:47;6.80;99.90
24226;DHT22;51462;51.422;5.514;2023-12-20T00:55:13;6.60;99.90
24226;DHT22;51462;51.422;5.514;2023-12-20T00:57:38;6.50;99.90
24226;DHT22;51462;51.422;5.514;2023-12-20T01:00:04;6.50;99.90
24226;DHT22;51462;51.422;5.514;2023-12-20T01:02:30;6.50;99.90
24226;DHT22;51462;51.422;5.514;2023-12-20T01:04:56;6.40;99.90
24226;DHT22;51462;51.422;5.514;2023-12-20T01:07:21;6.30;99.90
24226;DHT22;51462;51.422;5.514;2023-12-20T01:09:47;6.40;99.90
24226;DHT22;51462;51.422;5.514;2023-12-20T01:12:12;6.40;99.90
24226;DHT22;51462;51.422;5.514;2023-12-20T01:14:38;6.40;99.90
24226;DHT22;51462;51.422;5.514;2023-12-20T01:17:04;6.40;99.90
24226;DHT22;51462;51.422;5.514;2023-12-20T01:19:30;6.40;99.90
24226;DHT22;51462;51.422;5.514;2023-12-20T01:21:55;6.20;99.90
24226;DHT22;51462;51.422;5.514;2023-12-20T01:24:21;6.50;99.90
24226;DHT22;51462;51.422;5.514;2023-12-20T01:26:47;6.30;99.90
24226;DHT22;51462;51.422;5.514;2023-12-20T01:29:12;6.20;99.90
24226;DHT22;51462;51.422;5.514;2023-12-20T01:31:39;6.50;99.90
24226;DHT22;51462;51.422;5.514;2023-12-20T01:34:06;6.30;99.90
24226;DHT22;51462;51.422;5.514;2023-12-20T01:36:31;6.40;99.90
24226;DHT22;51462;51.422;5.514;2023-12-20T01:38:57;6.40;99.90
24226;DHT22;51462;51.422;5.514;2023-12-20T01:41:23;6.30;99.90
24226;DHT22;51462;51.422;5.514;2023-12-20T01:43:48;6.30;99.90
24226;DHT22;51462;51.422;5.514;2023-12-20T01:46:15;6.30;99.90
24226;DHT22;51462;51.422;5.514;2023-12-20T01:48:41;6.30;99.90
24226;DHT22;51462;51.422;5.514;2023-12-20T01:51:06;6.40;99.90
24226;DHT22;51462;51.422;5.514;2023-12-20T01:53:32;6.40;99.90
24226;DHT22;51462;51.422;5.514;2023-12-20T01:55:59;6.30;99.90
24226;DHT22;51462;51.422;5.514;2023-12-20T01:58:26;6.50;99.90
24226;DHT22;51462;51.422;5.514;2023-12-20T02:00:52;6.40;99.90
24226;DHT22;51462;51.422;5.514;2023-12-20T02:03:18;6.40;99.90
24226;DHT22;51462;51.422;5.514;2023-12-20T02:05:44;6.40;99.90
24226;DHT22;51462;51.422;5.514;2023-12-20T02:08:10;6.40;99.90
24226;DHT22;51462;51.422;5.514;2023-12-20T02:10:36;6.50;99.90
24226;DHT22;51462;51.422;5.514;2023-12-20T02:13:03;6.50;99.90
24226;DHT22;51462;51.422;5.514;2023-12-20T02:15:29;6.50;99.90
24226;DHT22;51462;51.422;5.514;2023-12-20T02:17:55;6.40;99.90
24226;DHT22;51462;51.422;5.514;2023-12-20T02:20:21;6.40;99.90
24226;DHT22;51462;51.422;5.514;2023-12-20T02:22:46;6.40;99.90
24226;DHT22;51462;51.422;5.514;2023-12-20T02:25:12;6.30;99.90
24226;DHT22;51462;51.422;5.514;2023-12-20T02:27:38;6.30;99.90
24226;DHT22;51462;51.422;5.514;2023-12-20T02:30:05;6.30;99.90
24226;DHT22;51462;51.422;5.514;2023-12-20T02:32:31;6.30;99.90
24226;DHT22;51462;51.422;5.514;2023-12-20T02:34:57;6.60;99.90
24226;DHT22;51462;51.422;5.514;2023-12-20T02:37:23;6.50;99.90
24226;DHT22;51462;51.422;5.514;2023-12-20T02:39:48;6.40;99.90
24226;DHT22;51462;51.422;5.514;2023-12-20T02:42:14;6.30;99.90
24226;DHT22;51462;51.422;5.514;2023-12-20T02:44:39;6.40;99.90
24226;DHT22;51462;51.422;5.514;2023-12-20T02:47:05;6.30;99.90
24226;DHT22;51462;51.422;5.514;2023-12-20T02:49:30;6.30;99.90
24226;DHT22;51462;51.422;5.514;2023-12-20T02:51:56;6.20;99.90
24226;DHT22;51462;51.422;5.514;2023-12-20T02:54:21;6.30;99.90
24226;DHT22;51462;51.422;5.514;2023-12-20T02:56:48;6.20;99.90
24226;DHT22;51462;51.422;5.514;2023-12-20T02:59:13;6.20;99.90
24226;DHT22;51462;51.422;5.514;2023-12-20T03:01:44;6.20;99.90
24226;DHT22;51462;51.422;5.514;2023-12-20T03:04:10;6.20;99.90
24226;DHT22;51462;51.422;5.514;2023-12-20T03:06:35;6.30;99.90
24226;DHT22;51462;51.422;5.514;2023-12-20T03:09:01;6.30;99.90
24226;DHT22;51462;51.422;5.514;2023-12-20T03:11:27;6.30;99.90
24226;DHT22;51462;51.422;5.514;2023-12-20T03:13:54;6.30;99.90
24226;DHT22;51462;51.422;5.514;2023-12-20T03:16:19;6.20;99.90
24226;DHT22;51462;51.422;5.514;2023-12-20T03:18:45;6.30;99.90
24226;DHT22;51462;51.422;5.514;2023-12-20T03:21:10;6.30;99.90
24226;DHT22;51462;51.422;5.514;2023-12-20T03:23:36;6.40;99.90
24226;DHT22;51462;51.422;5.514;2023-12-20T03:26:01;6.20;99.90
24226;DHT22;51462;51.422;5.514;2023-12-20T03:28:27;6.30;99.90
24226;DHT22;51462;51.422;5.514;2023-12-20T03:30:53;6.20;99.90
24226;DHT22;51462;51.422;5.514;2023-12-20T03:33:19;6.20;99.90
24226;DHT22;51462;51.422;5.514;2023-12-20T03:35:44;6.30;99.90
24226;DHT22;51462;51.422;5.514;2023-12-20T03:38:10;6.10;99.90
24226;DHT22;51462;51.422;5.514;2023-12-20T03:40:35;6.10;99.90
24226;DHT22;51462;51.422;5.514;2023-12-20T03:43:01;6.30;99.90
24226;DHT22;51462;51.422;5.514;2023-12-20T03:45:27;6.20;99.90
24226;DHT22;51462;51.422;5.514;2023-12-20T03:47:52;6.60;99.90
24226;DHT22;51462;51.422;5.514;2023-12-20T03:50:22;6.50;99.90
24226;DHT22;51462;51.422;5.514;2023-12-20T03:52:47;6.50;99.90
24226;DHT22;51462;51.422;5.514;2023-12-20T03:55:13;6.50;99.90
24226;DHT22;51462;51.422;5.514;2023-12-20T03:57:39;6.60;99.90
24226;DHT22;51462;51.422;5.514;2023-12-20T04:00:05;6.40;99.90
24226;DHT22;51462;51.422;5.514;2023-12-20T04:02:39;6.40;99.90
24226;DHT22;51462;51.422;5.514;2023-12-20T04:05:05;6.40;99.90
24226;DHT22;51462;51.422;5.514;2023-12-20T04:07:31;6.50;99.90
24226;DHT22;51462;51.422;5.514;2023-12-20T04:09:57;6.50;99.90
24226;DHT22;51462;51.422;5.514;2023-12-20T04:12:22;6.30;99.90
24226;DHT22;51462;51.422;5.514;2023-12-20T04:14:48;6.30;99.90
24226;DHT22;51462;51.422;5.514;2023-12-20T04:17:15;6.40;99.90
24226;DHT22;51462;51.422;5.514;2023-12-20T04:19:41;6.40;99.90
24226;DHT22;51462;51.422;5.514;2023-12-20T04:22:07;6.60;99.90
24226;DHT22;51462;51.422;5.514;2023-12-20T04:24:32;6.90;99.90
24226;DHT22;51462;51.422;5.514;2023-12-20T04:26:58;6.80;99.90
24226;DHT22;51462;51.422;5.514;2023-12-20T04:29:24;6.80;99.90
24226;DHT22;51462;51.422;5.514;2023-12-20T04:31:49;6.80;99.90
24226;DHT22;51462;51.422;5.514;2023-12-20T04:34:17;6.80;99.90
24226;DHT22;51462;51.422;5.514;2023-12-20T04:36:43;6.80;99.90
24226;DHT22;51462;51.422;5.514;2023-12-20T04:39:08;6.80;99.90
24226;DHT22;51462;51.422;5.514;2023-12-20T04:41:34;6.70;99.90
24226;DHT22;51462;51.422;5.514;2023-12-20T04:43:59;6.60;99.90
24226;DHT22;51462;51.422;5.514;2023-12-20T04:46:26;6.60;99.90
24226;DHT22;51462;51.422;5.514;2023-12-20T04:48:51;6.80;99.90
24226;DHT22;51462;51.422;5.514;2023-12-20T04:51:17;6.70;99.90
24226;DHT22;51462;51.422;5.514;2023-12-20T04:53:43;6.70;99.90
24226;DHT22;51462;51.422;5.514;2023-12-20T04:56:08;6.70;99.90
24226;DHT22;51462;51.422;5.514;2023-12-20T04:58:34;6.70;99.90
24226;DHT22;51462;51.422;5.514;2023-12-20T05:01:00;6.70;99.90
24226;DHT22;51462;51.422;5.514;2023-12-20T05:03:26;6.70;99.90
24226;DHT22;51462;51.422;5.514;2023-12-20T05:05:51;6.90;99.90
24226;DHT22;51462;51.422;5.514;2023-12-20T05:08:17;6.70;99.90
24226;DHT22;51462;51.422;5.514;2023-12-20T05:10:42;6.70;99.90
24226;DHT22;51462;51.422;5.514;2023-12-20T05:13:08;6.90;99.90
24226;DHT22;51462;51.422;5.514;2023-12-20T05:15:34;6.80;99.90
24226;DHT22;51462;51.422;5.514;2023-12-20T05:17:59;6.70;99.90
24226;DHT22;51462;51.422;5.514;2023-12-20T05:20:25;6.70;99.90
24226;DHT22;51462;51.422;5.514;2023-12-20T05:22:50;6.70;99.90
24226;DHT22;51462;51.422;5.514;2023-12-20T05:25:16;6.60;99.90
24226;DHT22;51462;51.422;5.514;2023-12-20T05:27:42;6.90;99.90
24226;DHT22;51462;51.422;5.514;2023-12-20T05:30:07;6.90;99.90
24226;DHT22;51462;51.422;5.514;2023-12-20T05:32:33;6.80;99.90
24226;DHT22;51462;51.422;5.514;2023-12-20T05:34:59;6.90;99.90
24226;DHT22;51462;51.422;5.514;2023-12-20T05:37:24;7.10;99.90
24226;DHT22;51462;51.422;5.514;2023-12-20T05:39:50;7.10;99.90
24226;DHT22;51462;51.422;5.514;2023-12-20T05:42:15;7.00;99.90
24226;DHT22;51462;51.422;5.514;2023-12-20T05:44:41;6.80;99.90
24226;DHT22;51462;51.422;5.514;2023-12-20T05:47:06;6.90;99.90
24226;DHT22;51462;51.422;5.514;2023-12-20T05:49:32;6.80;99.90
24226;DHT22;51462;51.422;5.514;2023-12-20T05:51:57;6.80;99.90
24226;DHT22;51462;51.422;5.514;2023-12-20T05:54:23;6.90;99.90
24226;DHT22;51462;51.422;5.514;2023-12-20T05:56:48;6.90;99.90
24226;DHT22;51462;51.422;5.514;2023-12-20T05:59:14;6.70;99.90
24226;DHT22;51462;51.422;5.514;2023-12-20T06:01:40;6.70;99.90
24226;DHT22;51462;51.422;5.514;2023-12-20T06:04:05;6.80;99.90
24226;DHT22;51462;51.422;5.514;2023-12-20T06:06:31;6.80;99.90
24226;DHT22;51462;51.422;5.514;2023-12-20T06:08:56;6.70;99.90
24226;DHT22;51462;51.422;5.514;2023-12-20T06:11:22;6.70;99.90
24226;DHT22;51462;51.422;5.514;2023-12-20T06:13:48;6.70;99.90
24226;DHT22;51462;51.422;5.514;2023-12-20T06:16:16;6.90;99.90
24226;DHT22;51462;51.422;5.514;2023-12-20T06:18:42;6.80;99.90
24226;DHT22;51462;51.422;5.514;2023-12-20T06:21:08;6.80;99.90
24226;DHT22;51462;51.422;5.514;2023-12-20T06:23:33;6.60;99.90
24226;DHT22;51462;51.422;5.514;2023-12-20T06:25:59;6.70;99.90
24226;DHT22;51462;51.422;5.514;2023-12-20T06:28:24;6.80;99.90
24226;DHT22;51462;51.422;5.514;2023-12-20T06:30:50;6.90;99.90
24226;DHT22;51462;51.422;5.514;2023-12-20T06:33:17;6.50;99.90
24226;DHT22;51462;51.422;5.514;2023-12-20T06:35:44;6.50;99.90
24226;DHT22;51462;51.422;5.514;2023-12-20T06:38:09;6.60;99.90
24226;DHT22;51462;51.422;5.514;2023-12-20T06:40:35;6.60;99.90
24226;DHT22;51462;51.422;5.514;2023-12-20T06:43:00;6.50;99.90
24226;DHT22;51462;51.422;5.514;2023-12-20T06:45:26;6.70;99.90
24226;DHT22;51462;51.422;5.514;2023-12-20T06:47:51;6.40;99.90
24226;DHT22;51462;51.422;5.514;2023-12-20T06:50:17;6.40;99.90
24226;DHT22;51462;51.422;5.514;2023-12-20T06:52:42;6.30;99.90
24226;DHT22;51462;51.422;5.514;2023-12-20T06:55:08;6.20;99.90
24226;DHT22;51462;51.422;5.514;2023-12-20T06:57:34;6.10;99.90
24226;DHT22;51462;51.422;5.514;2023-12-20T07:00:01;6.30;99.90
24226;DHT22;51462;51.422;5.514;2023-12-20T07:02:27;6.30;99.90
24226;DHT22;51462;51.422;5.514;2023-12-20T07:04:55;6.40;99.90
24226;DHT22;51462;51.422;5.514;2023-12-20T07:07:21;6.80;99.90
24226;DHT22;51462;51.422;5.514;2023-12-20T07:09:48;6.80;99.90
24226;DHT22;51462;51.422;5.514;2023-12-20T07:12:14;6.40;99.90
24226;DHT22;51462;51.422;5.514;2023-12-20T07:14:40;6.40;99.90
24226;DHT22;51462;51.422;5.514;2023-12-20T07:17:06;6.50;99.90
24226;DHT22;51462;51.422;5.514;2023-12-20T07:19:39;6.70;99.90
24226;DHT22;51462;51.422;5.514;2023-12-20T07:22:06;6.40;99.90
24226;DHT22;51462;51.422;5.514;2023-12-20T07:24:32;6.40;99.90
24226;DHT22;51462;51.422;5.514;2023-12-20T07:26:58;6.40;99.90
24226;DHT22;51462;51.422;5.514;2023-12-20T07:29:24;6.30;99.90
24226;DHT22;51462;51.422;5.514;2023-12-20T07:31:49;6.30;99.90
24226;DHT22;51462;51.422;5.514;2023-12-20T07:34:17;6.40;99.90
24226;DHT22;51462;51.422;5.514;2023-12-20T07:36:43;6.50;99.90
24226;DHT22;51462;51.422;5.514;2023-12-20T07:39:08;6.40;99.90
24226;DHT22;51462;51.422;5.514;2023-12-20T07:41:34;6.50;99.90
24226;DHT22;51462;51.422;5.514;2023-12-20T07:43:59;6.60;99.90
24226;DHT22;51462;51.422;5.514;2023-12-20T07:46:25;6.60;99.90
24226;DHT22;51462;51.422;5.514;2023-12-20T07:48:51;6.80;99.90
24226;DHT22;51462;51.422;5.514;2023-12-20T07:51:16;6.70;99.90
24226;DHT22;51462;51.422;5.514;2023-12-20T07:53:42;6.70;99.90
24226;DHT22;51462;51.422;5.514;2023-12-20T07:56:18;6.60;99.90
24226;DHT22;51462;51.422;5.514;2023-12-20T07:58:45;6.60;99.90
24226;DHT22;51462;51.422;5.514;2023-12-20T08:01:11;6.40;99.90
24226;DHT22;51462;51.422;5.514;2023-12-20T08:03:37;6.50;99.90
24226;DHT22;51462;51.422;5.514;2023-12-20T08:06:03;6.50;99.90
24226;DHT22;51462;51.422;5.514;2023-12-20T08:08:28;6.60;99.90
24226;DHT22;51462;51.422;5.514;2023-12-20T08:10:54;6.70;99.90
24226;DHT22;51462;51.422;5.514;2023-12-20T08:13:20;6.80;99.90
24226;DHT22;51462;51.422;5.514;2023-12-20T08:15:50;6.70;99.90
24226;DHT22;51462;51.422;5.514;2023-12-20T08:18:16;7.00;99.90
24226;DHT22;51462;51.422;5.514;2023-12-20T08:20:41;6.90;99.90
24226;DHT22;51462;51.422;5.514;2023-12-20T08:23:07;7.10;99.90
24226;DHT22;51462;51.422;5.514;2023-12-20T08:25:32;7.20;99.90
24226;DHT22;51462;51.422;5.514;2023-12-20T08:27:58;7.10;99.90
24226;DHT22;51462;51.422;5.514;2023-12-20T08:30:23;6.90;99.90
24226;DHT22;51462;51.422;5.514;2023-12-20T08:32:49;7.20;99.90
24226;DHT22;51462;51.422;5.514;2023-12-20T08:35:14;7.10;99.90
24226;DHT22;51462;51.422;5.514;2023-12-20T08:37:40;7.00;99.90
24226;DHT22;51462;51.422;5.514;2023-12-20T08:40:06;7.10;99.90
24226;DHT22;51462;51.422;5.514;2023-12-20T08:42:31;7.00;99.90
24226;DHT22;51462;51.422;5.514;2023-12-20T08:44:58;7.10;99.90
24226;DHT22;51462;51.422;5.514;2023-12-20T08:47:26;7.20;99.90
24226;DHT22;51462;51.422;5.514;2023-12-20T08:49:52;6.90;99.90
24226;DHT22;51462;51.422;5.514;2023-12-20T08:52:22;7.00;99.90
24226;DHT22;51462;51.422;5.514;2023-12-20T08:54:49;7.10;99.90
24226;DHT22;51462;51.422;5.514;2023-12-20T08:57:20;7.20;99.90
24226;DHT22;51462;51.422;5.514;2023-12-20T08:59:47;6.90;99.90
24226;DHT22;51462;51.422;5.514;2023-12-20T09:02:13;6.70;99.90
24226;DHT22;51462;51.422;5.514;2023-12-20T09:04:39;7.00;99.90
24226;DHT22;51462;51.422;5.514;2023-12-20T09:07:04;6.90;99.90
24226;DHT22;51462;51.422;5.514;2023-12-20T09:09:30;6.90;99.90
24226;DHT22;51462;51.422;5.514;2023-12-20T09:11:57;6.90;99.90
24226;DHT22;51462;51.422;5.514;2023-12-20T09:14:23;6.80;99.90
24226;DHT22;51462;51.422;5.514;2023-12-20T09:16:49;7.10;99.90
24226;DHT22;51462;51.422;5.514;2023-12-20T09:19:17;6.90;99.90
24226;DHT22;51462;51.422;5.514;2023-12-20T09:21:43;6.80;99.90
24226;DHT22;51462;51.422;5.514;2023-12-20T09:24:08;6.90;99.90
24226;DHT22;51462;51.422;5.514;2023-12-20T09:26:34;7.00;99.90
24226;DHT22;51462;51.422;5.514;2023-12-20T09:29:00;7.20;99.90
24226;DHT22;51462;51.422;5.514;2023-12-20T09:31:25;7.00;99.90
24226;DHT22;51462;51.422;5.514;2023-12-20T09:33:51;7.00;99.90
24226;DHT22;51462;51.422;5.514;2023-12-20T09:36:17;7.00;99.90
24226;DHT22;51462;51.422;5.514;2023-12-20T09:38:42;7.10;99.90
24226;DHT22;51462;51.422;5.514;2023-12-20T09:41:08;7.00;99.90
24226;DHT22;51462;51.422;5.514;2023-12-20T09:43:37;7.00;99.90
24226;DHT22;51462;51.422;5.514;2023-12-20T09:46:05;6.90;99.90
24226;DHT22;51462;51.422;5.514;2023-12-20T09:48:33;6.90;99.90
24226;DHT22;51462;51.422;5.514;2023-12-20T09:50:59;7.00;99.90
24226;DHT22;51462;51.422;5.514;2023-12-20T09:53:25;7.10;99.90
24226;DHT22;51462;51.422;5.514;2023-12-20T09:55:58;7.20;99.90
24226;DHT22;51462;51.422;5.514;2023-12-20T09:58:25;7.30;99.90
24226;DHT22;51462;51.422;5.514;2023-12-20T10:00:51;7.10;99.90
24226;DHT22;51462;51.422;5.514;2023-12-20T10:03:22;7.20;99.90
24226;DHT22;51462;51.422;5.514;2023-12-20T10:05:52;7.40;99.90
24226;DHT22;51462;51.422;5.514;2023-12-20T10:08:21;7.20;99.90
24226;DHT22;51462;51.422;5.514;2023-12-20T10:10:47;7.40;99.90
24226;DHT22;51462;51.422;5.514;2023-12-20T10:13:13;7.40;99.90
24226;DHT22;51462;51.422;5.514;2023-12-20T10:15:38;7.20;99.90
24226;DHT22;51462;51.422;5.514;2023-12-20T10:18:05;7.10;99.90
24226;DHT22;51462;51.422;5.514;2023-12-20T10:20:31;7.10;99.90
24226;DHT22;51462;51.422;5.514;2023-12-20T10:22:57;7.30;99.90
24226;DHT22;51462;51.422;5.514;2023-12-20T10:25:24;7.20;99.90
24226;DHT22;51462;51.422;5.514;2023-12-20T10:27:50;7.30;99.90
24226;DHT22;51462;51.422;5.514;2023-12-20T10:30:33;7.30;99.90
24226;DHT22;51462;51.422;5.514;2023-12-20T10:32:59;7.30;99.90
24226;DHT22;51462;51.422;5.514;2023-12-20T10:35:24;7.40;99.90
24226;DHT22;51462;51.422;5.514;2023-12-20T10:37:52;7.50;99.90
24226;DHT22;51462;51.422;5.514;2023-12-20T10:40:20;7.60;99.90
24226;DHT22;51462;51.422;5.514;2023-12-20T10:42:47;7.50;99.90
24226;DHT22;51462;51.422;5.514;2023-12-20T10:45:12;7.40;99.90
24226;DHT22;51462;51.422;5.514;2023-12-20T10:47:39;7.40;99.90
24226;DHT22;51462;51.422;5.514;2023-12-20T10:50:06;7.30;99.90
24226;DHT22;51462;51.422;5.514;2023-12-20T10:52:34;7.20;99.90
24226;DHT22;51462;51.422;5.514;2023-12-20T10:55:01;7.40;99.90
24226;DHT22;51462;51.422;5.514;2023-12-20T10:57:27;7.30;99.90
24226;DHT22;51462;51.422;5.514;2023-12-20T10:59:54;7.40;99.90
24226;DHT22;51462;51.422;5.514;2023-12-20T11:02:22;7.60;99.90
24226;DHT22;51462;51.422;5.514;2023-12-20T11:04:59;7.60;99.90
24226;DHT22;51462;51.422;5.514;2023-12-20T11:07:33;7.70;99.90
24226;DHT22;51462;51.422;5.514;2023-12-20T11:10:15;7.60;99.90
24226;DHT22;51462;51.422;5.514;2023-12-20T11:12:58;7.90;99.90
24226;DHT22;51462;51.422;5.514;2023-12-20T11:15:26;7.60;99.90
24226;DHT22;51462;51.422;5.514;2023-12-20T11:17:56;7.60;99.90
24226;DHT22;51462;51.422;5.514;2023-12-20T11:20:38;7.50;99.90
24226;DHT22;51462;51.422;5.514;2023-12-20T11:23:05;7.60;99.90
24226;DHT22;51462;51.422;5.514;2023-12-20T11:25:50;7.60;99.90
24226;DHT22;51462;51.422;5.514;2023-12-20T11:28:21;7.60;99.90
24226;DHT22;51462;51.422;5.514;2023-12-20T11:30:53;7.50;99.90
24226;DHT22;51462;51.422;5.514;2023-12-20T11:33:24;7.50;99.90
24226;DHT22;51462;51.422;5.514;2023-12-20T11:35:50;7.50;99.90
24226;DHT22;51462;51.422;5.514;2023-12-20T11:38:16;7.70;99.90
24226;DHT22;51462;51.422;5.514;2023-12-20T11:40:43;7.80;99.90
24226;DHT22;51462;51.422;5.514;2023-12-20T11:43:09;7.70;99.90
24226;DHT22;51462;51.422;5.514;2023-12-20T11:45:35;7.60;99.90
24226;DHT22;51462;51.422;5.514;2023-12-20T11:48:02;7.60;99.90
24226;DHT22;51462;51.422;5.514;2023-12-20T11:50:28;7.50;99.90
24226;DHT22;51462;51.422;5.514;2023-12-20T11:52:56;7.60;99.90
24226;DHT22;51462;51.422;5.514;2023-12-20T11:55:22;7.60;99.90
24226;DHT22;51462;51.422;5.514;2023-12-20T11:57:50;7.60;99.90
24226;DHT22;51462;51.422;5.514;2023-12-20T12:00:16;7.70;99.90
24226;DHT22;51462;51.422;5.514;2023-12-20T12:02:42;7.70;99.90
24226;DHT22;51462;51.422;5.514;2023-12-20T12:05:07;7.50;99.90
24226;DHT22;51462;51.422;5.514;2023-12-20T12:07:36;7.40;99.90
24226;DHT22;51462;51.422;5.514;2023-12-20T12:10:02;7.40;99.90
24226;DHT22;51462;51.422;5.514;2023-12-20T12:12:29;7.40;99.90
24226;DHT22;51462;51.422;5.514;2023-12-20T12:14:55;7.60;99.90
24226;DHT22;51462;51.422;5.514;2023-12-20T12:17:23;7.70;99.90
24226;DHT22;51462;51.422;5.514;2023-12-20T12:19:48;7.60;99.90
24226;DHT22;51462;51.422;5.514;2023-12-20T12:22:14;7.50;99.90
24226;DHT22;51462;51.422;5.514;2023-12-20T12:24:43;7.60;99.90
24226;DHT22;51462;51.422;5.514;2023-12-20T12:27:09;7.60;99.90
24226;DHT22;51462;51.422;5.514;2023-12-20T12:29:36;7.70;99.90
24226;DHT22;51462;51.422;5.514;2023-12-20T12:32:06;7.60;99.90
24226;DHT22;51462;51.422;5.514;2023-12-20T12:34:33;7.80;99.90
24226;DHT22;51462;51.422;5.514;2023-12-20T12:36:59;7.50;99.90
24226;DHT22;51462;51.422;5.514;2023-12-20T12:39:25;7.50;99.90
24226;DHT22;51462;51.422;5.514;2023-12-20T12:41:51;7.50;99.90
24226;DHT22;51462;51.422;5.514;2023-12-20T12:44:17;7.60;99.90
24226;DHT22;51462;51.422;5.514;2023-12-20T12:46:44;7.50;99.90
24226;DHT22;51462;51.422;5.514;2023-12-20T12:49:09;7.70;99.90
24226;DHT22;51462;51.422;5.514;2023-12-20T12:51:36;7.70;99.90
24226;DHT22;51462;51.422;5.514;2023-12-20T12:54:02;7.70;99.90
24226;DHT22;51462;51.422;5.514;2023-12-20T12:56:28;7.70;99.90
24226;DHT22;51462;51.422;5.514;2023-12-20T12:58:54;7.80;99.90
24226;DHT22;51462;51.422;5.514;2023-12-20T13:01:20;7.70;99.90
24226;DHT22;51462;51.422;5.514;2023-12-20T13:03:45;7.80;99.90
24226;DHT22;51462;51.422;5.514;2023-12-20T13:06:12;7.80;99.90
24226;DHT22;51462;51.422;5.514;2023-12-20T13:08:37;7.70;99.90
24226;DHT22;51462;51.422;5.514;2023-12-20T13:11:03;7.70;99.90
24226;DHT22;51462;51.422;5.514;2023-12-20T13:13:30;7.70;99.90
24226;DHT22;51462;51.422;5.514;2023-12-20T13:15:55;7.80;99.90
24226;DHT22;51462;51.422;5.514;2023-12-20T13:18:22;7.90;99.90
24226;DHT22;51462;51.422;5.514;2023-12-20T13:20:48;7.90;99.90
24226;DHT22;51462;51.422;5.514;2023-12-20T13:23:14;7.90;99.90
24226;DHT22;51462;51.422;5.514;2023-12-20T13:25:40;8.10;99.90
24226;DHT22;51462;51.422;5.514;2023-12-20T13:28:06;8.10;99.90
24226;DHT22;51462;51.422;5.514;2023-12-20T13:30:32;8.00;99.90
24226;DHT22;51462;51.422;5.514;2023-12-20T13:32:57;8.20;99.90
24226;DHT22;51462;51.422;5.514;2023-12-20T13:35:23;8.00;99.90
24226;DHT22;51462;51.422;5.514;2023-12-20T13:37:48;8.00;99.90
24226;DHT22;51462;51.422;5.514;2023-12-20T13:40:14;8.00;99.90
24226;DHT22;51462;51.422;5.514;2023-12-20T13:42:40;8.10;99.90
24226;DHT22;51462;51.422;5.514;2023-12-20T13:45:06;8.20;99.90
24226;DHT22;51462;51.422;5.514;2023-12-20T13:47:32;8.20;99.90
24226;DHT22;51462;51.422;5.514;2023-12-20T13:49:58;8.20;99.90
24226;DHT22;51462;51.422;5.514;2023-12-20T13:52:23;8.00;99.90
24226;DHT22;51462;51.422;5.514;2023-12-20T13:54:49;8.10;99.90
24226;DHT22;51462;51.422;5.514;2023-12-20T13:57:15;8.00;99.90
24226;DHT22;51462;51.422;5.514;2023-12-20T13:59:40;8.00;99.90
24226;DHT22;51462;51.422;5.514;2023-12-20T14:02:06;7.90;99.90
24226;DHT22;51462;51.422;5.514;2023-12-20T14:04:31;7.90;99.90
24226;DHT22;51462;51.422;5.514;2023-12-20T14:06:57;8.10;99.90
24226;DHT22;51462;51.422;5.514;2023-12-20T14:09:23;8.00;99.90
24226;DHT22;51462;51.422;5.514;2023-12-20T14:11:48;8.10;99.90
24226;DHT22;51462;51.422;5.514;2023-12-20T14:14:14;8.00;99.90
24226;DHT22;51462;51.422;5.514;2023-12-20T14:16:40;8.10;99.90
24226;DHT22;51462;51.422;5.514;2023-12-20T14:19:05;8.00;99.90
24226;DHT22;51462;51.422;5.514;2023-12-20T14:21:34;8.00;99.90
24226;DHT22;51462;51.422;5.514;2023-12-20T14:24:00;8.10;99.90
24226;DHT22;51462;51.422;5.514;2023-12-20T14:26:26;8.00;99.90
24226;DHT22;51462;51.422;5.514;2023-12-20T14:28:53;8.00;99.90
24226;DHT22;51462;51.422;5.514;2023-12-20T14:31:19;8.10;99.90
24226;DHT22;51462;51.422;5.514;2023-12-20T14:33:44;8.20;99.90
24226;DHT22;51462;51.422;5.514;2023-12-20T14:36:11;8.30;99.90
24226;DHT22;51462;51.422;5.514;2023-12-20T14:38:37;8.30;99.90
24226;DHT22;51462;51.422;5.514;2023-12-20T14:41:03;8.30;99.90
24226;DHT22;51462;51.422;5.514;2023-12-20T14:43:29;8.10;99.90
24226;DHT22;51462;51.422;5.514;2023-12-20T14:45:55;8.10;99.90
24226;DHT22;51462;51.422;5.514;2023-12-20T14:48:21;8.20;99.90
24226;DHT22;51462;51.422;5.514;2023-12-20T14:50:46;8.10;99.90
24226;DHT22;51462;51.422;5.514;2023-12-20T14:53:14;8.10;99.90
24226;DHT22;51462;51.422;5.514;2023-12-20T14:55:41;8.20;99.90
24226;DHT22;51462;51.422;5.514;2023-12-20T14:58:07;8.30;99.90
24226;DHT22;51462;51.422;5.514;2023-12-20T15:00:33;8.30;99.90
24226;DHT22;51462;51.422;5.514;2023-12-20T15:02:59;8.30;99.90
24226;DHT22;51462;51.422;5.514;2023-12-20T15:05:25;8.30;99.90
24226;DHT22;51462;51.422;5.514;2023-12-20T15:07:51;8.40;99.90
24226;DHT22;51462;51.422;5.514;2023-12-20T15:10:18;8.40;99.90
24226;DHT22;51462;51.422;5.514;2023-12-20T15:12:43;8.30;99.90
24226;DHT22;51462;51.422;5.514;2023-12-20T15:15:10;8.30;99.90
24226;DHT22;51462;51.422;5.514;2023-12-20T15:17:36;8.40;99.90
24226;DHT22;51462;51.422;5.514;2023-12-20T15:20:02;8.40;99.90
24226;DHT22;51462;51.422;5.514;2023-12-20T15:22:29;8.40;99.90
24226;DHT22;51462;51.422;5.514;2023-12-20T15:24:55;8.30;99.90
24226;DHT22;51462;51.422;5.514;2023-12-20T15:27:20;8.30;99.90
24226;DHT22;51462;51.422;5.514;2023-12-20T15:29:46;8.30;99.90
24226;DHT22;51462;51.422;5.514;2023-12-20T15:32:12;8.40;99.90
24226;DHT22;51462;51.422;5.514;2023-12-20T15:34:37;8.20;99.90
24226;DHT22;51462;51.422;5.514;2023-12-20T15:37:03;8.40;99.90
24226;DHT22;51462;51.422;5.514;2023-12-20T15:39:29;8.50;99.90